Latest Weather Observations for Cape Byron

IDN60801

Issued at 10:03 pm EST Thursday 18 July 2024 (issued every 10 minutes, with the page automatically refreshed every 10 minutes)

About weather observations | Map of weather stations | Latest weather observations for NSW | Other Formats
Station Details ID: 058216 Name: CAPE BYRON AWS Lat: -28.64 Lon: 153.64 Height: 95.0 m
Data from the previous 72 hours. | See also: Recent months at Cape Byron
Date/Time
EST
Temp
°C
App
Temp
°C
Dew
Point
°C
Rel
Hum
%
Delta-T
°C
Wind Press
QNH
hPa
Press
MSL
hPa
Rain since
9am
mm
Dir  Spd
km/h
Gust
km/h
Spd
kts
Gust
kts
18/10:00pm 12.6 6.1 4.6 58 3.7 W 28 37 15 20 1016.3 1016.1 0.0
18/09:30pm 12.8 6.3 4.8 58 3.7 W 28 39 15 21 1016.4 1016.2 0.0
18/09:00pm 12.7 6.3 5.1 60 3.5 W 28 41 15 22 1016.0 1015.9 0.0
18/08:30pm 12.7 6.7 5.4 61 3.4 W 26 37 14 20 1015.5 1015.4 0.0
18/08:00pm 13.0 7.4 5.4 60 3.6 W 24 30 13 16 1014.9 1014.8 0.0
18/07:30pm 13.2 8.4 5.4 59 3.7 W 20 28 11 15 1014.6 1014.5 0.0
18/07:00pm 13.6 8.9 5.3 57 3.9 W 19 24 10 13 1014.4 1014.3 0.0
18/06:30pm 14.1 10.2 5.2 55 4.2 W 15 22 8 12 1014.4 1014.3 0.0
18/06:00pm 14.8 10.8 4.8 51 4.7 W 15 17 8 9 1014.0 1013.9 0.0
18/05:30pm 15.1 10.3 4.8 50 4.8 W 19 24 10 13 1013.7 1013.6 0.0
18/05:00pm 15.4 10.7 5.3 51 4.8 WSW 19 24 10 13 1013.3 1013.2 0.0
18/04:30pm 15.7 11.0 5.3 50 5.0 WSW 19 28 10 15 1012.7 1012.6 0.0
18/04:00pm 16.2 10.9 4.9 47 5.4 WSW 22 32 12 17 1012.4 1012.3 0.0
18/03:30pm 16.8 12.2 5.7 48 5.4 WSW 19 30 10 16 1012.2 1012.1 0.0
18/03:00pm 17.7 13.3 6.6 48 5.5 WSW 19 28 10 15 1011.9 1011.8 0.0
18/02:30pm 16.5 11.2 5.2 47 5.4 WSW 22 32 12 17 1011.8 1011.7 0.0
18/02:00pm 16.7 10.6 4.7 45 5.7 WSW 26 37 14 20 1011.9 1011.8 0.0
18/01:30pm 16.7 11.6 5.9 49 5.3 WSW 22 33 12 18 1011.9 1011.8 0.0
18/01:00pm 16.3 9.9 5.3 48 5.3 WSW 28 39 15 21 1012.1 1012.0 0.0
18/12:30pm 16.3 10.5 6.2 51 4.9 WSW 26 39 14 21 1012.4 1012.3 0.0
18/12:07pm 15.7 9.0 5.6 51 4.9 WSW 30 48 16 26 1012.7 1012.6 0.0
18/12:00pm 15.5 8.1 5.1 50 4.9 WSW 33 48 18 26 1012.9 1012.8 0.0
18/11:30am 15.3 8.0 5.5 52 4.7 SW 33 52 18 28 1013.2 1013.1 0.0
18/11:12am 15.2 9.0 6.0 54 4.4 WSW 28 46 15 25 1013.4 1013.3 0.0
18/11:00am 14.9 7.7 6.0 55 4.3 WSW 33 46 18 25 1013.4 1013.3 0.0
18/10:30am 14.8 9.4 6.4 57 4.1 WSW 24 39 13 21 1013.5 1013.4 0.0
18/10:00am 14.1 7.9 6.0 58 3.9 WSW 28 44 15 24 1013.5 1013.4 0.0
18/09:30am 13.6 6.5 5.7 59 3.7 WSW 32 46 17 25 1013.3 1013.2 0.0
18/09:25am 13.6 7.4 6.0 60 3.6 WSW 28 46 15 25 1013.3 1013.2 0.0
18/09:00am 13.3 7.5 6.4 63 3.3 W 26 39 14 21 1013.5 1013.4 0.0
18/08:30am 12.7 6.1 6.1 64 3.1 W 30 41 16 22 1013.0 1012.9 0.0
18/08:00am 12.2 5.9 5.8 65 3.0 W 28 35 15 19 1012.9 1012.8 0.0
18/07:30am 11.7 5.4 5.6 66 2.8 W 28 37 15 20 1012.6 1012.5 0.0
18/07:00am 11.5 5.1 5.4 66 2.8 W 28 39 15 21 1012.4 1012.3 0.0
18/06:30am 11.4 5.0 5.3 66 2.8 W 28 39 15 21 1012.2 1012.1 0.0
18/06:00am 11.7 4.9 5.3 65 3.0 W 30 43 16 23 1012.0 1011.9 0.0
18/05:30am 11.8 5.4 5.4 65 3.0 W 28 43 15 23 1011.7 1011.6 0.0
18/05:00am 12.0 5.6 5.4 64 3.1 W 28 46 15 25 1011.5 1011.4 0.0
18/04:30am 11.8 5.0 5.0 63 3.1 W 30 44 16 24 1011.2 1011.1 0.0
18/04:00am 12.0 5.2 5.2 63 3.2 WSW 30 41 16 22 1011.0 1010.9 0.0
18/03:44am 12.1 4.9 5.0 62 3.3 W 32 50 17 27 1010.8 1010.7 0.0
18/03:30am 12.0 4.8 5.2 63 3.1 W 32 43 17 23 1010.7 1010.6 0.0
18/03:03am 11.8 4.6 5.0 63 3.1 W 32 50 17 27 1010.5 1010.4 0.0
18/03:00am 12.0 4.6 5.2 63 3.2 W 33 50 18 27 1010.5 1010.4 0.0
18/02:30am 12.1 4.3 5.0 62 3.3 WSW 35 48 19 26 1010.6 1010.5 0.0
18/02:20am 12.2 4.1 5.1 62 3.3 W 37 61 20 33 1010.5 1010.4 0.0
18/02:00am 11.9 4.1 5.1 63 3.1 W 35 52 19 28 1010.5 1010.4 0.0
18/01:30am 12.1 4.3 4.8 61 3.4 W 35 54 19 29 1010.6 1010.5 0.0
18/01:22am 12.1 4.7 5.0 62 3.3 WSW 33 52 18 28 1010.7 1010.6 0.0
18/01:00am 12.1 4.7 4.8 61 3.4 W 33 50 18 27 1010.8 1010.7 0.0
18/12:30am 12.0 4.2 4.7 61 3.3 W 35 50 19 27 1010.8 1010.7 0.0
18/12:10am 12.0 3.4 4.7 61 3.3 W 39 57 21 31 1010.8 1010.7 0.0
18/12:00am 11.9 4.1 4.9 62 3.2 W 35 48 19 26 1010.8 1010.7 0.0
 
Date/Time
EST
Temp
°C
App
Temp
°C
Dew
Point
°C
Rel
Hum
%
Delta-T
°C
Wind Press
QNH
hPa
Press
MSL
hPa
Rain since
9am
mm
Dir  Spd
km/h
Gust
km/h
Spd
kts
Gust
kts
17/11:30pm 11.7 3.9 4.7 62 3.2 W 35 57 19 31 1011.0 1010.9 0.0
17/11:00pm 11.5 3.3 4.5 62 3.2 W 37 63 20 34 1011.0 1010.9 0.0
17/10:30pm 11.7 3.8 4.4 61 3.3 W 35 54 19 29 1011.3 1011.2 0.0
17/10:00pm 11.7 3.8 4.2 60 3.4 W 35 57 19 31 1011.3 1011.2 0.0
17/09:30pm 11.6 4.3 4.3 61 3.3 W 32 50 17 27 1011.3 1011.2 0.0
17/09:16pm 11.6 4.6 4.3 61 3.3 W 30 48 16 26 1011.2 1011.1 0.0
17/09:00pm 11.5 5.0 4.5 62 3.2 W 28 44 15 24 1011.1 1011.0 0.0
17/08:30pm 11.6 5.5 4.6 62 3.2 WNW 26 43 14 23 1010.9 1010.8 0.0
17/08:00pm 11.6 5.8 4.3 61 3.3 WNW 24 41 13 22 1010.7 1010.6 0.0
17/07:30pm 12.0 5.4 4.2 59 3.5 W 28 43 15 23 1010.4 1010.3 0.0
17/07:00pm 12.2 6.0 4.4 59 3.6 W 26 41 14 22 1010.2 1010.1 0.0
17/06:49pm 12.3 5.8 4.5 59 3.6 W 28 48 15 26 1010.0 1009.9 0.0
17/06:30pm 12.6 6.5 4.6 58 3.7 W 26 41 14 22 1009.8 1009.7 0.0
17/06:00pm 12.6 7.2 4.6 58 3.7 WNW 22 33 12 18 1009.6 1009.5 0.0
17/05:30pm 13.0 8.0 4.4 56 3.9 WNW 20 33 11 18 1009.1 1009.0 0.0
17/05:00pm 13.5 7.7 4.4 54 4.2 W 24 44 13 24 1008.7 1008.5 0.0
17/04:30pm 14.2 7.2 4.2 51 4.6 W 30 50 16 27 1008.2 1008.0 0.0
17/04:00pm 14.9 7.9 4.3 49 4.9 W 30 50 16 27 1007.9 1007.7 0.0
17/03:34pm 15.3 7.8 4.7 49 5.0 WNW 33 52 18 28 1007.5 1007.3 0.0
17/03:30pm 15.5 8.3 5.1 50 4.9 WNW 32 48 17 26 1007.5 1007.3 0.0
17/03:00pm 15.9 9.2 5.5 50 5.0 W 30 48 16 26 1007.3 1007.1 0.0
17/02:40pm 16.0 9.5 4.7 47 5.3 W 28 48 15 26 1007.4 1007.2 0.0
17/02:30pm 16.5 11.4 6.1 50 5.1 W 22 39 12 21 1007.5 1007.3 0.0
17/02:02pm 16.2 8.9 4.6 46 5.5 W 32 52 17 28 1007.2 1007.0 0.0
17/02:00pm 16.3 9.2 5.3 48 5.3 W 32 48 17 26 1007.2 1007.0 0.0
17/01:30pm 16.2 9.1 5.5 49 5.2 W 32 54 17 29 1007.3 1007.1 0.0
17/01:17pm 16.1 9.9 4.5 46 5.5 W 26 48 14 26 1007.2 1007.0 0.0
17/01:00pm 16.5 11.9 5.5 48 5.3 WNW 19 32 10 17 1007.6 1007.4 0.0
17/12:30pm 16.1 11.3 5.4 49 5.1 WNW 20 33 11 18 1007.9 1007.7 0.0
17/12:00pm 15.4 10.1 5.0 50 4.9 WNW 22 39 12 21 1008.2 1008.0 0.0
17/11:30am 14.8 8.9 5.6 54 4.4 W 26 50 14 27 1008.5 1008.3 0.0
17/11:25am 14.5 8.1 5.0 53 4.5 W 28 50 15 27 1008.7 1008.5 0.0
17/11:00am 14.0 8.3 4.9 54 4.3 W 24 39 13 21 1009.3 1009.2 0.0
17/10:32am 13.2 5.8 3.8 53 4.3 W 32 50 17 27 1009.8 1009.7 0.0
17/10:30am 13.1 6.1 4.0 54 4.1 W 30 44 16 24 1009.8 1009.7 0.0
17/10:03am 12.7 6.1 4.2 56 3.9 W 28 48 15 26 1010.1 1010.0 0.0
17/10:00am 12.7 6.4 3.9 55 4.0 W 26 39 14 21 1010.1 1010.0 0.0
17/09:30am 12.1 6.2 4.1 58 3.6 W 24 44 13 24 1010.6 1010.5 0.0
17/09:00am 11.8 7.1 3.3 56 3.8 WNW 17 32 9 17 1010.4 1010.3 0.0
17/08:30am 11.7 7.1 3.5 57 3.6 WNW 17 30 9 16 1010.2 1010.1 0.0
17/08:00am 11.6 7.0 3.9 59 3.5 NW 17 28 9 15 1010.3 1010.2 0.0
17/07:30am 10.4 5.3 3.0 60 3.2 WNW 19 32 10 17 1010.2 1010.1 0.0
17/07:00am 9.9 5.5 2.7 61 3.1 WNW 15 30 8 16 1010.0 1009.9 0.0
17/06:30am 10.0 5.2 2.4 59 3.2 WNW 17 30 9 16 1009.6 1009.5 0.0
17/06:00am 10.0 4.6 2.6 60 3.2 WNW 20 35 11 19 1009.2 1009.1 0.0
17/05:30am 9.9 5.1 2.7 61 3.1 WNW 17 26 9 14 1008.9 1008.8 0.0
17/05:00am 10.4 5.5 2.3 57 3.5 WNW 17 35 9 19 1008.8 1008.7 0.0
17/04:30am 10.9 6.0 2.0 54 3.8 NW 17 28 9 15 1008.8 1008.7 0.0
17/04:00am 10.6 7.2 1.7 54 3.8 WNW 9 20 5 11 1008.6 1008.4 0.0
17/03:30am 11.1 3.7 1.9 53 3.9 W 30 52 16 28 1008.2 1008.0 0.0
17/03:02am 11.2 4.3 2.5 55 3.8 WNW 28 46 15 25 1007.9 1007.7 0.0
17/03:00am 11.1 4.6 2.4 55 3.8 WNW 26 46 14 25 1007.9 1007.7 0.0
17/02:30am 11.5 4.9 2.3 53 4.0 WNW 26 46 14 25 1008.0 1007.8 0.0
17/02:00am 11.8 3.5 2.0 51 4.2 W 35 57 19 31 1007.5 1007.3 0.0
17/01:30am 11.9 4.5 2.1 51 4.2 WNW 30 63 16 34 1008.1 1007.9 0.0
17/01:11am 11.9 4.9 2.1 51 4.2 WNW 28 54 15 29 1008.1 1007.9 0.0
17/01:00am 11.8 5.2 2.3 52 4.1 WNW 26 43 14 23 1008.3 1008.1 0.0
17/12:30am 11.8 4.9 2.3 52 4.1 WNW 28 48 15 26 1008.4 1008.2 0.0
17/12:00am 12.0 4.3 2.2 51 4.3 WNW 32 52 17 28 1008.4 1008.2 0.0
 
Date/Time
EST
Temp
°C
App
Temp
°C
Dew
Point
°C
Rel
Hum
%
Delta-T
°C
Wind Press
QNH
hPa
Press
MSL
hPa
Rain since
9am
mm
Dir  Spd
km/h
Gust
km/h
Spd
kts
Gust
kts
16/11:30pm 12.2 3.5 1.8 49 4.5 WNW 37 61 20 33 1008.4 1008.2 0.0
16/11:00pm 12.4 2.5 1.7 48 4.6 W 43 67 23 36 1008.2 1008.0 0.0
16/10:30pm 12.2 4.2 1.8 49 4.5 WNW 33 57 18 31 1009.0 1008.9 0.0
16/10:06pm 12.0 5.0 2.2 51 4.2 WNW 28 52 15 28 1009.3 1009.2 0.0
16/10:00pm 12.1 5.1 2.0 50 4.4 WNW 28 44 15 24 1009.4 1009.3 0.0
16/09:48pm 12.1 5.1 1.7 49 4.5 WNW 28 46 15 25 1009.6 1009.5 0.0
16/09:30pm 12.0 5.8 2.2 51 4.2 WNW 24 41 13 22 1009.7 1009.6 0.0
16/09:00pm 12.1 5.9 2.3 51 4.3 WNW 24 41 13 22 1010.1 1010.0 0.0
16/08:30pm 11.9 6.3 3.7 57 3.7 WNW 22 37 12 20 1010.2 1010.1 0.0
16/08:00pm 12.0 6.0 3.5 56 3.8 W 24 35 13 19 1010.0 1009.9 0.0
16/07:30pm 12.2 6.2 3.4 55 3.9 WNW 24 46 13 25 1009.8 1009.7 0.0
16/07:00pm 12.1 6.9 3.3 55 3.9 WNW 20 37 11 20 1009.6 1009.5 0.0
16/06:33pm 12.8 5.9 2.6 50 4.5 W 28 46 15 25 1009.3 1009.2 0.0
16/06:30pm 12.6 6.1 2.7 51 4.4 W 26 43 14 23 1009.3 1009.2 0.0
16/06:07pm 12.7 5.9 3.1 52 4.3 W 28 52 15 28 1008.6 1008.4 0.0
16/06:00pm 12.5 7.5 3.5 54 4.0 W 19 30 10 16 1008.7 1008.5 0.0
16/05:30pm 12.7 7.7 3.6 54 4.1 WNW 19 39 10 21 1008.5 1008.3 0.0
16/05:00pm 13.4 7.4 3.2 50 4.6 WNW 24 44 13 24 1007.8 1007.6 0.0
16/04:30pm 13.9 7.0 2.5 46 5.1 W 28 50 15 27 1007.5 1007.3 0.0
16/04:00pm 14.6 7.6 1.8 42 5.6 W 28 61 15 33 1007.4 1007.2 0.0
16/03:59pm 14.6 7.5 1.5 41 5.7 W 28 61 15 33 1007.3 1007.1 0.0
16/03:30pm 15.4 9.2 1.9 40 6.0 WNW 24 41 13 22 1007.1 1006.9 0.0
16/03:00pm 15.4 8.8 1.9 40 6.0 WNW 26 43 14 23 1006.8 1006.6 0.0
16/02:39pm 15.3 8.0 0.3 36 6.4 W 28 57 15 31 1006.8 1006.6 0.0
16/02:30pm 15.4 8.4 1.9 40 6.0 W 28 46 15 25 1006.9 1006.7 0.0
16/02:00pm 15.0 7.6 1.9 41 5.8 W 30 52 16 28 1006.8 1006.6 0.0
16/01:30pm 15.5 8.4 3.3 44 5.6 WNW 30 50 16 27 1006.8 1006.6 0.0
16/01:00pm 15.0 8.2 2.9 44 5.5 W 28 46 15 25 1007.1 1006.9 0.0
16/12:33pm 14.0 6.7 2.3 45 5.2 W 30 50 16 27 1007.7 1007.5 0.0
16/12:30pm 14.2 6.9 2.5 45 5.2 W 30 44 16 24 1007.7 1007.5 0.0
16/12:00pm 15.1 8.6 4.5 49 5.0 WNW 28 52 15 28 1008.3 1008.1 0.0
16/11:30am 14.2 5.9 2.1 44 5.3 W 35 56 19 30 1008.8 1008.7 0.0
16/11:00am 13.9 6.7 3.1 48 4.9 WNW 30 54 16 29 1009.2 1009.1 0.0
16/10:31am 13.3 6.4 2.5 48 4.8 W 28 50 15 27 1009.8 1009.7 0.0
16/10:30am 13.4 7.0 3.2 50 4.6 W 26 50 14 27 1009.8 1009.7 0.0
16/10:11am 12.9 5.9 2.2 48 4.7 W 28 48 15 26 1010.1 1010.0 0.0
16/10:00am 12.9 7.0 3.8 54 4.1 W 24 41 13 22 1010.3 1010.2 0.0
16/09:44am 12.6 5.8 3.3 53 4.2 WNW 28 48 15 26 1010.3 1010.2 0.0
16/09:30am 12.3 6.8 4.0 57 3.8 WNW 22 46 12 25 1010.5 1010.4 0.0
16/09:00am 11.9 7.3 3.7 57 3.7 WNW 17 39 9 21 1010.8 1010.7 0.0
16/08:30am 12.4 8.5 3.6 55 3.9 NW 13 19 7 10 1010.7 1010.6 0.0
16/08:00am 11.4 8.2 2.9 56 3.7 NW 9 17 5 9 1010.6 1010.5 0.0
16/07:30am 10.1 6.8 2.2 58 3.4 NW 9 19 5 10 1010.4 1010.3 0.0
16/07:00am 9.0 5.3 2.1 62 2.9 WNW 11 17 6 9 1010.3 1010.2 0.0
16/06:30am 8.4 4.3 2.0 64 2.7 WNW 13 22 7 12 1010.2 1010.1 0.0
16/06:00am 8.7 4.2 2.3 64 2.7 WNW 15 24 8 13 1010.0 1009.9 0.0
16/05:30am 9.1 5.0 2.0 61 3.0 WNW 13 20 7 11 1009.8 1009.7 0.0
16/05:00am 9.4 5.3 2.0 60 3.1 NW 13 24 7 13 1009.6 1009.5 0.0
16/04:30am 9.3 5.3 2.6 63 2.9 WNW 13 22 7 12 1009.3 1009.2 0.0
16/04:00am 9.7 6.0 2.3 60 3.2 NW 11 20 6 11 1009.3 1009.2 0.0
16/03:30am 9.2 4.1 3.0 65 2.7 WNW 19 28 10 15 1009.5 1009.4 0.0
16/03:00am 9.3 3.6 2.9 64 2.8 WNW 22 33 12 18 1009.5 1009.4 0.0
16/02:30am 9.5 4.4 2.8 63 2.9 WNW 19 28 10 15 1009.5 1009.4 0.0
16/02:00am 9.8 4.5 3.1 63 2.9 W 20 28 11 15 1009.9 1009.8 0.0
16/01:30am 10.1 4.8 2.9 61 3.1 W 20 26 11 14 1010.1 1010.0 0.0
16/01:00am 10.4 4.7 2.7 59 3.3 W 22 28 12 15 1010.2 1010.1 0.0
16/12:30am 10.1 4.6 3.8 65 2.8 WNW 22 30 12 16 1010.3 1010.2 0.0
16/12:00am 9.9 3.9 3.2 63 2.9 W 24 32 13 17 1010.3 1010.2 0.0
 
Date/Time
EST
Temp
°C
App
Temp
°C
Dew
Point
°C
Rel
Hum
%
Delta-T
°C
Wind Press
QNH
hPa
Press
MSL
hPa
Rain since
9am
mm
Dir  Spd
km/h
Gust
km/h
Spd
kts
Gust
kts
15/11:30pm 10.2 4.6 3.7 64 2.9 WNW 22 32 12 17 1010.3 1010.2 0.0
15/11:00pm 10.5 4.8 3.1 60 3.2 WNW 22 30 12 16 1010.4 1010.3 0.0
15/10:30pm 11.2 5.3 4.0 61 3.2 WNW 24 39 13 21 1010.5 1010.4 0.0

Other formats

Comma delimited format used in spreadsheet applications
http://www.bom.gov.au/fwo/IDN60801/IDN60801.94599.axf

JavaScript Object Notation format (JSON) in row-major order
http://www.bom.gov.au/fwo/IDN60801/IDN60801.94599.json

Data quality

Most of these data are generated automatically and are frequently updated. Quality checks on data are not normally performed. It is possible for incorrect values to appear. Refer to information at About Latest Weather Observations and please check the disclaimer before using these data.